sensor_id;sensor_type;location;lat;lon;timestamp;P1;durP1;ratioP1;P2;durP2;ratioP2
67156;SDS011;54086;50.126;8.710;2024-01-30T00:01:10;22.07;;;11.53;;
67156;SDS011;54086;50.126;8.710;2024-01-30T00:03:36;21.33;;;11.67;;
67156;SDS011;54086;50.126;8.710;2024-01-30T00:06:02;20.93;;;11.73;;
67156;SDS011;54086;50.126;8.710;2024-01-30T00:08:28;20.65;;;12.10;;
67156;SDS011;54086;50.126;8.710;2024-01-30T00:10:54;20.63;;;10.80;;
67156;SDS011;54086;50.126;8.710;2024-01-30T00:13:19;18.97;;;11.83;;
67156;SDS011;54086;50.126;8.710;2024-01-30T00:15:45;18.73;;;10.97;;
67156;SDS011;54086;50.126;8.710;2024-01-30T00:18:10;21.00;;;11.70;;
67156;SDS011;54086;50.126;8.710;2024-01-30T00:20:36;21.73;;;11.47;;
67156;SDS011;54086;50.126;8.710;2024-01-30T00:23:01;21.47;;;11.77;;
67156;SDS011;54086;50.126;8.710;2024-01-30T00:25:27;19.57;;;11.23;;
67156;SDS011;54086;50.126;8.710;2024-01-30T00:27:52;21.50;;;11.43;;
67156;SDS011;54086;50.126;8.710;2024-01-30T00:30:17;18.47;;;10.37;;
67156;SDS011;54086;50.126;8.710;2024-01-30T00:32:44;20.38;;;11.40;;
67156;SDS011;54086;50.126;8.710;2024-01-30T00:35:10;20.58;;;11.18;;
67156;SDS011;54086;50.126;8.710;2024-01-30T00:37:36;21.50;;;11.77;;
67156;SDS011;54086;50.126;8.710;2024-01-30T00:40:01;18.30;;;11.10;;
67156;SDS011;54086;50.126;8.710;2024-01-30T00:42:27;18.95;;;10.77;;
67156;SDS011;54086;50.126;8.710;2024-01-30T00:44:52;19.17;;;10.97;;
67156;SDS011;54086;50.126;8.710;2024-01-30T00:47:18;19.87;;;10.97;;
67156;SDS011;54086;50.126;8.710;2024-01-30T00:49:43;20.27;;;11.18;;
67156;SDS011;54086;50.126;8.710;2024-01-30T00:52:09;20.13;;;10.57;;
67156;SDS011;54086;50.126;8.710;2024-01-30T00:54:34;18.50;;;11.00;;
67156;SDS011;54086;50.126;8.710;2024-01-30T00:56:59;19.10;;;10.47;;
67156;SDS011;54086;50.126;8.710;2024-01-30T00:59:25;19.23;;;10.97;;
67156;SDS011;54086;50.126;8.710;2024-01-30T01:01:50;22.70;;;11.00;;
67156;SDS011;54086;50.126;8.710;2024-01-30T01:04:16;23.37;;;11.50;;
67156;SDS011;54086;50.126;8.710;2024-01-30T01:06:42;18.13;;;10.90;;
67156;SDS011;54086;50.126;8.710;2024-01-30T01:09:10;23.90;;;11.30;;
67156;SDS011;54086;50.126;8.710;2024-01-30T01:11:37;20.42;;;11.10;;
67156;SDS011;54086;50.126;8.710;2024-01-30T01:14:03;20.37;;;10.60;;
67156;SDS011;54086;50.126;8.710;2024-01-30T01:16:29;20.67;;;10.73;;
67156;SDS011;54086;50.126;8.710;2024-01-30T01:18:54;18.57;;;10.33;;
67156;SDS011;54086;50.126;8.710;2024-01-30T01:21:20;20.25;;;10.88;;
67156;SDS011;54086;50.126;8.710;2024-01-30T01:23:45;21.93;;;11.40;;
67156;SDS011;54086;50.126;8.710;2024-01-30T01:26:10;18.63;;;10.17;;
67156;SDS011;54086;50.126;8.710;2024-01-30T01:28:36;16.85;;;10.32;;
67156;SDS011;54086;50.126;8.710;2024-01-30T01:31:01;17.77;;;10.33;;
67156;SDS011;54086;50.126;8.710;2024-01-30T01:33:33;19.23;;;11.35;;
67156;SDS011;54086;50.126;8.710;2024-01-30T01:35:59;20.23;;;11.93;;
67156;SDS011;54086;50.126;8.710;2024-01-30T01:38:27;22.98;;;11.20;;
67156;SDS011;54086;50.126;8.710;2024-01-30T01:40:52;21.03;;;11.40;;
67156;SDS011;54086;50.126;8.710;2024-01-30T01:43:18;19.57;;;11.47;;
67156;SDS011;54086;50.126;8.710;2024-01-30T01:45:44;41.00;;;16.77;;
67156;SDS011;54086;50.126;8.710;2024-01-30T01:48:10;27.08;;;13.75;;
67156;SDS011;54086;50.126;8.710;2024-01-30T01:50:37;19.40;;;11.32;;
67156;SDS011;54086;50.126;8.710;2024-01-30T01:53:03;22.52;;;11.55;;
67156;SDS011;54086;50.126;8.710;2024-01-30T01:55:30;21.08;;;11.82;;
67156;SDS011;54086;50.126;8.710;2024-01-30T01:57:57;18.27;;;10.77;;
67156;SDS011;54086;50.126;8.710;2024-01-30T02:00:23;19.33;;;12.43;;
67156;SDS011;54086;50.126;8.710;2024-01-30T02:02:48;19.53;;;11.80;;
67156;SDS011;54086;50.126;8.710;2024-01-30T02:05:15;20.38;;;11.63;;
67156;SDS011;54086;50.126;8.710;2024-01-30T02:07:41;18.63;;;11.15;;
67156;SDS011;54086;50.126;8.710;2024-01-30T02:10:08;20.38;;;11.80;;
67156;SDS011;54086;50.126;8.710;2024-01-30T02:12:34;20.70;;;12.25;;
67156;SDS011;54086;50.126;8.710;2024-01-30T02:15:00;21.17;;;12.33;;
67156;SDS011;54086;50.126;8.710;2024-01-30T02:17:26;21.40;;;11.63;;
67156;SDS011;54086;50.126;8.710;2024-01-30T02:19:52;20.55;;;11.45;;
67156;SDS011;54086;50.126;8.710;2024-01-30T02:22:17;19.15;;;11.75;;
67156;SDS011;54086;50.126;8.710;2024-01-30T02:24:44;21.87;;;12.03;;
67156;SDS011;54086;50.126;8.710;2024-01-30T02:27:09;22.00;;;12.35;;
67156;SDS011;54086;50.126;8.710;2024-01-30T02:29:35;21.90;;;12.10;;
67156;SDS011;54086;50.126;8.710;2024-01-30T02:32:01;21.80;;;11.65;;
67156;SDS011;54086;50.126;8.710;2024-01-30T02:34:26;22.30;;;12.50;;
67156;SDS011;54086;50.126;8.710;2024-01-30T02:36:52;21.50;;;12.03;;
67156;SDS011;54086;50.126;8.710;2024-01-30T02:39:17;22.43;;;12.27;;
67156;SDS011;54086;50.126;8.710;2024-01-30T02:41:43;20.98;;;12.05;;
67156;SDS011;54086;50.126;8.710;2024-01-30T02:44:08;19.90;;;11.83;;
67156;SDS011;54086;50.126;8.710;2024-01-30T02:46:33;22.67;;;12.00;;
67156;SDS011;54086;50.126;8.710;2024-01-30T02:48:59;21.50;;;11.90;;
67156;SDS011;54086;50.126;8.710;2024-01-30T02:51:24;20.20;;;11.85;;
67156;SDS011;54086;50.126;8.710;2024-01-30T02:53:50;20.90;;;12.30;;
67156;SDS011;54086;50.126;8.710;2024-01-30T02:56:15;18.63;;;11.30;;
67156;SDS011;54086;50.126;8.710;2024-01-30T02:58:40;19.70;;;10.23;;
67156;SDS011;54086;50.126;8.710;2024-01-30T03:01:06;20.10;;;11.30;;
67156;SDS011;54086;50.126;8.710;2024-01-30T03:03:32;19.45;;;11.32;;
67156;SDS011;54086;50.126;8.710;2024-01-30T03:05:59;19.27;;;12.00;;
67156;SDS011;54086;50.126;8.710;2024-01-30T03:08:24;21.83;;;11.80;;
67156;SDS011;54086;50.126;8.710;2024-01-30T03:10:50;19.93;;;11.87;;
67156;SDS011;54086;50.126;8.710;2024-01-30T03:13:15;20.65;;;11.73;;
67156;SDS011;54086;50.126;8.710;2024-01-30T03:15:40;20.30;;;10.90;;
67156;SDS011;54086;50.126;8.710;2024-01-30T03:18:06;21.37;;;12.00;;
67156;SDS011;54086;50.126;8.710;2024-01-30T03:20:31;22.47;;;11.63;;
67156;SDS011;54086;50.126;8.710;2024-01-30T03:22:57;19.85;;;10.93;;
67156;SDS011;54086;50.126;8.710;2024-01-30T03:25:24;19.90;;;11.82;;
67156;SDS011;54086;50.126;8.710;2024-01-30T03:27:50;18.93;;;11.07;;
67156;SDS011;54086;50.126;8.710;2024-01-30T03:30:15;21.33;;;11.33;;
67156;SDS011;54086;50.126;8.710;2024-01-30T03:32:40;19.73;;;11.20;;
67156;SDS011;54086;50.126;8.710;2024-01-30T03:35:06;19.13;;;11.73;;
67156;SDS011;54086;50.126;8.710;2024-01-30T03:37:32;20.50;;;12.33;;
67156;SDS011;54086;50.126;8.710;2024-01-30T03:39:57;20.77;;;11.90;;
67156;SDS011;54086;50.126;8.710;2024-01-30T03:42:23;21.60;;;12.32;;
67156;SDS011;54086;50.126;8.710;2024-01-30T03:44:48;19.83;;;11.77;;
67156;SDS011;54086;50.126;8.710;2024-01-30T03:47:16;20.30;;;11.75;;
67156;SDS011;54086;50.126;8.710;2024-01-30T03:49:42;19.87;;;12.43;;
67156;SDS011;54086;50.126;8.710;2024-01-30T03:52:08;19.67;;;11.87;;
67156;SDS011;54086;50.126;8.710;2024-01-30T03:54:33;20.20;;;11.77;;
67156;SDS011;54086;50.126;8.710;2024-01-30T03:56:59;22.53;;;13.07;;
67156;SDS011;54086;50.126;8.710;2024-01-30T03:59:24;19.77;;;11.83;;
67156;SDS011;54086;50.126;8.710;2024-01-30T04:01:50;19.80;;;12.47;;
67156;SDS011;54086;50.126;8.710;2024-01-30T04:04:18;19.53;;;11.40;;
67156;SDS011;54086;50.126;8.710;2024-01-30T04:06:44;20.95;;;11.23;;
67156;SDS011;54086;50.126;8.710;2024-01-30T04:09:10;24.23;;;12.00;;
67156;SDS011;54086;50.126;8.710;2024-01-30T04:11:36;20.40;;;11.83;;
67156;SDS011;54086;50.126;8.710;2024-01-30T04:14:01;23.83;;;12.37;;
67156;SDS011;54086;50.126;8.710;2024-01-30T04:16:27;17.93;;;11.27;;
67156;SDS011;54086;50.126;8.710;2024-01-30T04:18:52;19.45;;;11.32;;
67156;SDS011;54086;50.126;8.710;2024-01-30T04:21:17;21.97;;;11.27;;
67156;SDS011;54086;50.126;8.710;2024-01-30T04:23:43;21.47;;;11.30;;
67156;SDS011;54086;50.126;8.710;2024-01-30T04:26:09;21.60;;;11.20;;
67156;SDS011;54086;50.126;8.710;2024-01-30T04:28:34;20.37;;;11.43;;
67156;SDS011;54086;50.126;8.710;2024-01-30T04:30:59;21.57;;;11.73;;
67156;SDS011;54086;50.126;8.710;2024-01-30T04:33:25;20.50;;;11.57;;
67156;SDS011;54086;50.126;8.710;2024-01-30T04:35:50;22.23;;;12.40;;
67156;SDS011;54086;50.126;8.710;2024-01-30T04:38:17;20.55;;;11.65;;
67156;SDS011;54086;50.126;8.710;2024-01-30T04:40:42;21.70;;;12.37;;
67156;SDS011;54086;50.126;8.710;2024-01-30T04:43:08;19.60;;;11.15;;
67156;SDS011;54086;50.126;8.710;2024-01-30T04:45:33;19.67;;;12.03;;
67156;SDS011;54086;50.126;8.710;2024-01-30T04:47:59;18.03;;;10.47;;
67156;SDS011;54086;50.126;8.710;2024-01-30T04:50:24;22.13;;;11.10;;
67156;SDS011;54086;50.126;8.710;2024-01-30T04:52:51;21.88;;;12.25;;
67156;SDS011;54086;50.126;8.710;2024-01-30T04:55:17;20.63;;;11.83;;
67156;SDS011;54086;50.126;8.710;2024-01-30T04:57:42;18.67;;;11.70;;
67156;SDS011;54086;50.126;8.710;2024-01-30T05:00:07;23.17;;;12.87;;
67156;SDS011;54086;50.126;8.710;2024-01-30T05:02:33;21.35;;;12.00;;
67156;SDS011;54086;50.126;8.710;2024-01-30T05:04:58;23.70;;;12.63;;
67156;SDS011;54086;50.126;8.710;2024-01-30T05:07:24;18.83;;;11.83;;
67156;SDS011;54086;50.126;8.710;2024-01-30T05:09:50;25.25;;;12.20;;
67156;SDS011;54086;50.126;8.710;2024-01-30T05:12:15;20.47;;;12.17;;
67156;SDS011;54086;50.126;8.710;2024-01-30T05:14:41;18.67;;;11.75;;
67156;SDS011;54086;50.126;8.710;2024-01-30T05:17:06;21.10;;;12.27;;
67156;SDS011;54086;50.126;8.710;2024-01-30T05:19:34;20.88;;;12.82;;
67156;SDS011;54086;50.126;8.710;2024-01-30T05:21:59;24.10;;;12.43;;
67156;SDS011;54086;50.126;8.710;2024-01-30T05:24:25;21.17;;;12.07;;
67156;SDS011;54086;50.126;8.710;2024-01-30T05:26:50;22.97;;;12.93;;
67156;SDS011;54086;50.126;8.710;2024-01-30T05:29:16;21.80;;;12.02;;
67156;SDS011;54086;50.126;8.710;2024-01-30T05:31:41;20.73;;;11.83;;
67156;SDS011;54086;50.126;8.710;2024-01-30T05:34:07;20.97;;;12.07;;
67156;SDS011;54086;50.126;8.710;2024-01-30T05:36:33;20.30;;;11.73;;
67156;SDS011;54086;50.126;8.710;2024-01-30T05:38:58;21.43;;;12.10;;
67156;SDS011;54086;50.126;8.710;2024-01-30T05:41:24;22.83;;;12.50;;
67156;SDS011;54086;50.126;8.710;2024-01-30T05:43:49;23.67;;;13.23;;
67156;SDS011;54086;50.126;8.710;2024-01-30T05:46:14;22.52;;;12.45;;
67156;SDS011;54086;50.126;8.710;2024-01-30T05:48:40;22.63;;;13.27;;
67156;SDS011;54086;50.126;8.710;2024-01-30T05:51:06;23.77;;;13.33;;
67156;SDS011;54086;50.126;8.710;2024-01-30T05:53:32;23.65;;;12.35;;
67156;SDS011;54086;50.126;8.710;2024-01-30T05:55:57;23.60;;;12.20;;
67156;SDS011;54086;50.126;8.710;2024-01-30T05:58:23;22.90;;;12.53;;
67156;SDS011;54086;50.126;8.710;2024-01-30T06:00:48;21.33;;;12.50;;
67156;SDS011;54086;50.126;8.710;2024-01-30T06:03:13;21.57;;;12.57;;
67156;SDS011;54086;50.126;8.710;2024-01-30T06:05:39;22.93;;;12.77;;
67156;SDS011;54086;50.126;8.710;2024-01-30T06:08:04;25.77;;;15.32;;
67156;SDS011;54086;50.126;8.710;2024-01-30T06:10:30;25.87;;;12.77;;
67156;SDS011;54086;50.126;8.710;2024-01-30T06:12:55;22.67;;;11.73;;
67156;SDS011;54086;50.126;8.710;2024-01-30T06:15:21;23.07;;;12.20;;
67156;SDS011;54086;50.126;8.710;2024-01-30T06:17:46;26.60;;;13.40;;
67156;SDS011;54086;50.126;8.710;2024-01-30T06:20:12;23.00;;;12.70;;
67156;SDS011;54086;50.126;8.710;2024-01-30T06:22:37;25.30;;;12.87;;
67156;SDS011;54086;50.126;8.710;2024-01-30T06:25:03;21.47;;;11.23;;
67156;SDS011;54086;50.126;8.710;2024-01-30T06:27:29;22.35;;;12.52;;
67156;SDS011;54086;50.126;8.710;2024-01-30T06:29:59;22.87;;;14.23;;
67156;SDS011;54086;50.126;8.710;2024-01-30T06:32:26;25.13;;;11.93;;
67156;SDS011;54086;50.126;8.710;2024-01-30T06:34:52;25.80;;;13.18;;
67156;SDS011;54086;50.126;8.710;2024-01-30T06:37:17;22.23;;;12.60;;
67156;SDS011;54086;50.126;8.710;2024-01-30T06:39:43;24.83;;;12.13;;
67156;SDS011;54086;50.126;8.710;2024-01-30T06:42:09;21.08;;;12.00;;
67156;SDS011;54086;50.126;8.710;2024-01-30T06:44:34;24.57;;;12.47;;
67156;SDS011;54086;50.126;8.710;2024-01-30T06:47:00;23.10;;;12.27;;
67156;SDS011;54086;50.126;8.710;2024-01-30T06:49:25;20.30;;;12.10;;
67156;SDS011;54086;50.126;8.710;2024-01-30T06:51:50;19.93;;;11.93;;
67156;SDS011;54086;50.126;8.710;2024-01-30T06:54:16;25.30;;;12.80;;
67156;SDS011;54086;50.126;8.710;2024-01-30T06:56:41;26.03;;;13.00;;
67156;SDS011;54086;50.126;8.710;2024-01-30T06:59:07;22.75;;;13.25;;
67156;SDS011;54086;50.126;8.710;2024-01-30T07:01:33;21.67;;;11.90;;
67156;SDS011;54086;50.126;8.710;2024-01-30T07:03:59;21.77;;;12.10;;
67156;SDS011;54086;50.126;8.710;2024-01-30T07:06:24;21.67;;;12.77;;
67156;SDS011;54086;50.126;8.710;2024-01-30T07:08:49;21.73;;;12.57;;
67156;SDS011;54086;50.126;8.710;2024-01-30T07:11:21;18.80;;;12.10;;
67156;SDS011;54086;50.126;8.710;2024-01-30T07:13:48;22.13;;;12.50;;
67156;SDS011;54086;50.126;8.710;2024-01-30T07:16:15;21.52;;;12.60;;
67156;SDS011;54086;50.126;8.710;2024-01-30T07:18:41;19.60;;;11.40;;
67156;SDS011;54086;50.126;8.710;2024-01-30T07:21:06;21.65;;;12.55;;
67156;SDS011;54086;50.126;8.710;2024-01-30T07:23:32;23.60;;;13.07;;
67156;SDS011;54086;50.126;8.710;2024-01-30T07:25:59;24.08;;;12.95;;
67156;SDS011;54086;50.126;8.710;2024-01-30T07:28:24;20.80;;;11.70;;
67156;SDS011;54086;50.126;8.710;2024-01-30T07:30:50;23.60;;;12.30;;
67156;SDS011;54086;50.126;8.710;2024-01-30T07:33:15;21.55;;;13.07;;
67156;SDS011;54086;50.126;8.710;2024-01-30T07:35:41;23.57;;;12.90;;
67156;SDS011;54086;50.126;8.710;2024-01-30T07:38:06;21.93;;;13.87;;
67156;SDS011;54086;50.126;8.710;2024-01-30T07:40:32;20.40;;;11.97;;
67156;SDS011;54086;50.126;8.710;2024-01-30T07:42:58;23.48;;;13.35;;
67156;SDS011;54086;50.126;8.710;2024-01-30T07:45:24;24.25;;;13.07;;
67156;SDS011;54086;50.126;8.710;2024-01-30T07:47:50;24.75;;;13.68;;
67156;SDS011;54086;50.126;8.710;2024-01-30T07:50:16;21.53;;;12.67;;
67156;SDS011;54086;50.126;8.710;2024-01-30T07:52:42;23.73;;;12.90;;
67156;SDS011;54086;50.126;8.710;2024-01-30T07:55:08;25.55;;;12.98;;
67156;SDS011;54086;50.126;8.710;2024-01-30T07:57:34;24.10;;;13.43;;
67156;SDS011;54086;50.126;8.710;2024-01-30T08:00:00;24.17;;;13.02;;
67156;SDS011;54086;50.126;8.710;2024-01-30T08:02:26;24.00;;;12.67;;
67156;SDS011;54086;50.126;8.710;2024-01-30T08:04:51;23.10;;;13.17;;
67156;SDS011;54086;50.126;8.710;2024-01-30T08:07:16;22.20;;;12.00;;
67156;SDS011;54086;50.126;8.710;2024-01-30T08:09:42;26.40;;;12.57;;
67156;SDS011;54086;50.126;8.710;2024-01-30T08:12:08;24.45;;;12.05;;
67156;SDS011;54086;50.126;8.710;2024-01-30T08:14:34;22.60;;;13.20;;
67156;SDS011;54086;50.126;8.710;2024-01-30T08:16:59;22.58;;;12.13;;
67156;SDS011;54086;50.126;8.710;2024-01-30T08:19:24;24.87;;;12.90;;
67156;SDS011;54086;50.126;8.710;2024-01-30T08:21:50;26.53;;;13.90;;
67156;SDS011;54086;50.126;8.710;2024-01-30T08:24:15;25.03;;;13.57;;
67156;SDS011;54086;50.126;8.710;2024-01-30T08:26:41;22.60;;;12.87;;
67156;SDS011;54086;50.126;8.710;2024-01-30T08:29:06;23.27;;;13.63;;
67156;SDS011;54086;50.126;8.710;2024-01-30T08:31:31;23.77;;;14.13;;
67156;SDS011;54086;50.126;8.710;2024-01-30T08:33:57;28.23;;;15.67;;
67156;SDS011;54086;50.126;8.710;2024-01-30T08:36:22;23.33;;;13.43;;
67156;SDS011;54086;50.126;8.710;2024-01-30T08:38:48;27.00;;;14.57;;
67156;SDS011;54086;50.126;8.710;2024-01-30T08:41:13;23.77;;;14.18;;
67156;SDS011;54086;50.126;8.710;2024-01-30T08:43:39;24.60;;;15.17;;
67156;SDS011;54086;50.126;8.710;2024-01-30T08:46:04;27.73;;;14.90;;
67156;SDS011;54086;50.126;8.710;2024-01-30T08:48:29;24.58;;;14.88;;
67156;SDS011;54086;50.126;8.710;2024-01-30T08:50:55;27.47;;;14.40;;
67156;SDS011;54086;50.126;8.710;2024-01-30T08:53:20;24.33;;;13.93;;
67156;SDS011;54086;50.126;8.710;2024-01-30T08:55:46;23.93;;;15.00;;
67156;SDS011;54086;50.126;8.710;2024-01-30T08:58:11;27.67;;;15.10;;
67156;SDS011;54086;50.126;8.710;2024-01-30T09:00:37;25.50;;;14.95;;
67156;SDS011;54086;50.126;8.710;2024-01-30T09:03:03;27.60;;;16.10;;
67156;SDS011;54086;50.126;8.710;2024-01-30T09:05:28;26.17;;;15.05;;
67156;SDS011;54086;50.126;8.710;2024-01-30T09:07:54;24.75;;;15.15;;
67156;SDS011;54086;50.126;8.710;2024-01-30T09:10:19;27.30;;;15.07;;
67156;SDS011;54086;50.126;8.710;2024-01-30T09:12:45;26.03;;;15.23;;
67156;SDS011;54086;50.126;8.710;2024-01-30T09:15:11;25.17;;;16.47;;
67156;SDS011;54086;50.126;8.710;2024-01-30T09:17:36;23.43;;;15.50;;
67156;SDS011;54086;50.126;8.710;2024-01-30T09:20:02;27.77;;;15.07;;
67156;SDS011;54086;50.126;8.710;2024-01-30T09:22:28;24.47;;;14.83;;
67156;SDS011;54086;50.126;8.710;2024-01-30T09:24:53;26.70;;;15.40;;
67156;SDS011;54086;50.126;8.710;2024-01-30T09:27:18;25.65;;;15.02;;
67156;SDS011;54086;50.126;8.710;2024-01-30T09:29:45;26.17;;;15.50;;
67156;SDS011;54086;50.126;8.710;2024-01-30T09:32:10;25.83;;;14.95;;
67156;SDS011;54086;50.126;8.710;2024-01-30T09:34:35;21.40;;;13.73;;
67156;SDS011;54086;50.126;8.710;2024-01-30T09:37:01;22.23;;;14.53;;
67156;SDS011;54086;50.126;8.710;2024-01-30T09:39:27;25.58;;;14.68;;
67156;SDS011;54086;50.126;8.710;2024-01-30T09:42:35;22.37;;;14.70;;
67156;SDS011;54086;50.126;8.710;2024-01-30T09:45:00;24.08;;;14.52;;
67156;SDS011;54086;50.126;8.710;2024-01-30T09:47:26;24.42;;;14.02;;
67156;SDS011;54086;50.126;8.710;2024-01-30T09:49:51;24.73;;;15.33;;
67156;SDS011;54086;50.126;8.710;2024-01-30T09:52:17;24.95;;;14.45;;
67156;SDS011;54086;50.126;8.710;2024-01-30T09:54:43;23.93;;;15.00;;
67156;SDS011;54086;50.126;8.710;2024-01-30T09:57:11;24.25;;;14.23;;
67156;SDS011;54086;50.126;8.710;2024-01-30T09:59:36;24.05;;;14.27;;
67156;SDS011;54086;50.126;8.710;2024-01-30T10:02:02;24.03;;;14.07;;
67156;SDS011;54086;50.126;8.710;2024-01-30T10:07:49;22.40;;;13.57;;
67156;SDS011;54086;50.126;8.710;2024-01-30T10:10:17;20.70;;;14.07;;
67156;SDS011;54086;50.126;8.710;2024-01-30T10:12:43;25.47;;;13.90;;
67156;SDS011;54086;50.126;8.710;2024-01-30T10:15:20;23.75;;;14.15;;
67156;SDS011;54086;50.126;8.710;2024-01-30T10:17:47;21.40;;;13.38;;
67156;SDS011;54086;50.126;8.710;2024-01-30T10:20:13;21.10;;;13.00;;
67156;SDS011;54086;50.126;8.710;2024-01-30T10:22:39;21.70;;;12.68;;
67156;SDS011;54086;50.126;8.710;2024-01-30T10:25:09;23.67;;;14.00;;
67156;SDS011;54086;50.126;8.710;2024-01-30T10:27:35;24.70;;;13.87;;
67156;SDS011;54086;50.126;8.710;2024-01-30T10:30:01;27.88;;;14.27;;
67156;SDS011;54086;50.126;8.710;2024-01-30T10:32:29;30.85;;;16.27;;
67156;SDS011;54086;50.126;8.710;2024-01-30T10:34:54;23.17;;;13.90;;
67156;SDS011;54086;50.126;8.710;2024-01-30T10:37:22;24.20;;;13.07;;
67156;SDS011;54086;50.126;8.710;2024-01-30T10:39:51;21.20;;;13.70;;
67156;SDS011;54086;50.126;8.710;2024-01-30T10:42:20;21.92;;;13.63;;
67156;SDS011;54086;50.126;8.710;2024-01-30T10:47:26;23.80;;;13.88;;
67156;SDS011;54086;50.126;8.710;2024-01-30T10:49:53;23.13;;;13.47;;
67156;SDS011;54086;50.126;8.710;2024-01-30T10:52:20;23.58;;;14.13;;
67156;SDS011;54086;50.126;8.710;2024-01-30T10:54:47;20.65;;;13.27;;
67156;SDS011;54086;50.126;8.710;2024-01-30T10:57:18;23.52;;;14.10;;
67156;SDS011;54086;50.126;8.710;2024-01-30T10:59:47;21.83;;;13.30;;
67156;SDS011;54086;50.126;8.710;2024-01-30T11:02:14;24.23;;;13.47;;
67156;SDS011;54086;50.126;8.710;2024-01-30T11:04:41;21.95;;;13.50;;
67156;SDS011;54086;50.126;8.710;2024-01-30T11:07:16;21.75;;;13.27;;
67156;SDS011;54086;50.126;8.710;2024-01-30T11:09:52;21.67;;;13.73;;
67156;SDS011;54086;50.126;8.710;2024-01-30T11:12:22;22.33;;;13.57;;
67156;SDS011;54086;50.126;8.710;2024-01-30T11:15:07;24.60;;;13.80;;
67156;SDS011;54086;50.126;8.710;2024-01-30T11:20:15;21.02;;;13.10;;
67156;SDS011;54086;50.126;8.710;2024-01-30T11:23:01;20.02;;;12.73;;
67156;SDS011;54086;50.126;8.710;2024-01-30T11:25:31;20.80;;;13.03;;
67156;SDS011;54086;50.126;8.710;2024-01-30T11:27:57;21.95;;;13.15;;
67156;SDS011;54086;50.126;8.710;2024-01-30T11:30:26;21.53;;;13.40;;
67156;SDS011;54086;50.126;8.710;2024-01-30T11:32:59;23.23;;;15.18;;
67156;SDS011;54086;50.126;8.710;2024-01-30T11:35:34;21.80;;;12.88;;
67156;SDS011;54086;50.126;8.710;2024-01-30T11:38:01;22.35;;;13.05;;
67156;SDS011;54086;50.126;8.710;2024-01-30T11:40:28;21.70;;;13.77;;
67156;SDS011;54086;50.126;8.710;2024-01-30T11:42:55;22.27;;;12.80;;
67156;SDS011;54086;50.126;8.710;2024-01-30T11:45:21;22.15;;;13.02;;
67156;SDS011;54086;50.126;8.710;2024-01-30T11:47:46;19.83;;;12.48;;
67156;SDS011;54086;50.126;8.710;2024-01-30T11:50:12;21.00;;;13.40;;
67156;SDS011;54086;50.126;8.710;2024-01-30T11:52:38;22.63;;;14.18;;
67156;SDS011;54086;50.126;8.710;2024-01-30T11:55:04;24.48;;;13.00;;
67156;SDS011;54086;50.126;8.710;2024-01-30T11:57:30;19.97;;;12.10;;
67156;SDS011;54086;50.126;8.710;2024-01-30T11:59:56;20.03;;;12.27;;
67156;SDS011;54086;50.126;8.710;2024-01-30T12:02:24;21.77;;;12.63;;
67156;SDS011;54086;50.126;8.710;2024-01-30T12:04:49;21.92;;;11.68;;
67156;SDS011;54086;50.126;8.710;2024-01-30T12:07:15;22.00;;;13.00;;
67156;SDS011;54086;50.126;8.710;2024-01-30T12:09:41;20.25;;;12.60;;
67156;SDS011;54086;50.126;8.710;2024-01-30T12:12:07;20.63;;;12.63;;
67156;SDS011;54086;50.126;8.710;2024-01-30T12:14:37;21.88;;;13.05;;
67156;SDS011;54086;50.126;8.710;2024-01-30T12:17:04;24.00;;;13.60;;
67156;SDS011;54086;50.126;8.710;2024-01-30T12:19:30;23.87;;;12.77;;
67156;SDS011;54086;50.126;8.710;2024-01-30T12:21:58;21.55;;;12.52;;
67156;SDS011;54086;50.126;8.710;2024-01-30T12:24:27;20.50;;;12.10;;
67156;SDS011;54086;50.126;8.710;2024-01-30T12:26:56;19.05;;;11.93;;
67156;SDS011;54086;50.126;8.710;2024-01-30T12:29:22;22.23;;;12.15;;
67156;SDS011;54086;50.126;8.710;2024-01-30T12:31:47;18.70;;;11.80;;
67156;SDS011;54086;50.126;8.710;2024-01-30T12:34:16;19.30;;;11.60;;
67156;SDS011;54086;50.126;8.710;2024-01-30T12:36:42;21.17;;;11.90;;
67156;SDS011;54086;50.126;8.710;2024-01-30T12:39:10;20.83;;;11.13;;
67156;SDS011;54086;50.126;8.710;2024-01-30T12:41:38;19.60;;;11.35;;
67156;SDS011;54086;50.126;8.710;2024-01-30T12:44:03;19.67;;;11.10;;
67156;SDS011;54086;50.126;8.710;2024-01-30T12:46:29;20.67;;;12.93;;
67156;SDS011;54086;50.126;8.710;2024-01-30T12:48:54;18.87;;;11.60;;
67156;SDS011;54086;50.126;8.710;2024-01-30T12:51:19;20.67;;;11.20;;
67156;SDS011;54086;50.126;8.710;2024-01-30T12:53:45;19.73;;;11.57;;
67156;SDS011;54086;50.126;8.710;2024-01-30T12:56:12;20.38;;;12.52;;
67156;SDS011;54086;50.126;8.710;2024-01-30T12:58:39;20.05;;;11.57;;
67156;SDS011;54086;50.126;8.710;2024-01-30T13:01:05;20.77;;;12.25;;
67156;SDS011;54086;50.126;8.710;2024-01-30T13:03:30;18.53;;;12.53;;
67156;SDS011;54086;50.126;8.710;2024-01-30T13:05:56;20.30;;;13.30;;
67156;SDS011;54086;50.126;8.710;2024-01-30T13:08:21;19.42;;;13.05;;
67156;SDS011;54086;50.126;8.710;2024-01-30T13:10:48;21.23;;;12.73;;
67156;SDS011;54086;50.126;8.710;2024-01-30T13:13:13;21.95;;;12.82;;
67156;SDS011;54086;50.126;8.710;2024-01-30T13:15:39;21.50;;;13.03;;
67156;SDS011;54086;50.126;8.710;2024-01-30T13:18:04;23.13;;;13.23;;
67156;SDS011;54086;50.126;8.710;2024-01-30T13:20:30;20.02;;;12.32;;
67156;SDS011;54086;50.126;8.710;2024-01-30T13:22:55;21.33;;;13.10;;
67156;SDS011;54086;50.126;8.710;2024-01-30T13:25:21;20.93;;;12.67;;
67156;SDS011;54086;50.126;8.710;2024-01-30T13:27:46;20.48;;;12.90;;
67156;SDS011;54086;50.126;8.710;2024-01-30T13:30:12;19.07;;;11.60;;
67156;SDS011;54086;50.126;8.710;2024-01-30T13:32:37;20.23;;;11.80;;
67156;SDS011;54086;50.126;8.710;2024-01-30T13:35:03;20.63;;;12.10;;
67156;SDS011;54086;50.126;8.710;2024-01-30T13:37:29;19.55;;;11.57;;
67156;SDS011;54086;50.126;8.710;2024-01-30T13:39:55;20.47;;;12.03;;
67156;SDS011;54086;50.126;8.710;2024-01-30T13:42:21;21.52;;;11.80;;
67156;SDS011;54086;50.126;8.710;2024-01-30T13:44:46;17.97;;;11.83;;
67156;SDS011;54086;50.126;8.710;2024-01-30T13:47:12;19.57;;;12.13;;
67156;SDS011;54086;50.126;8.710;2024-01-30T13:49:37;19.20;;;12.00;;
67156;SDS011;54086;50.126;8.710;2024-01-30T13:52:03;20.50;;;12.83;;
67156;SDS011;54086;50.126;8.710;2024-01-30T13:54:28;20.38;;;12.68;;
67156;SDS011;54086;50.126;8.710;2024-01-30T13:56:55;19.70;;;11.80;;
67156;SDS011;54086;50.126;8.710;2024-01-30T13:59:21;20.30;;;11.90;;
67156;SDS011;54086;50.126;8.710;2024-01-30T14:01:49;22.35;;;12.90;;
67156;SDS011;54086;50.126;8.710;2024-01-30T14:04:15;20.80;;;12.53;;
67156;SDS011;54086;50.126;8.710;2024-01-30T14:06:40;19.45;;;11.75;;
67156;SDS011;54086;50.126;8.710;2024-01-30T14:09:06;17.87;;;11.50;;
67156;SDS011;54086;50.126;8.710;2024-01-30T14:11:32;18.53;;;12.23;;
67156;SDS011;54086;50.126;8.710;2024-01-30T14:13:57;19.53;;;12.00;;
67156;SDS011;54086;50.126;8.710;2024-01-30T14:16:22;20.77;;;12.50;;
67156;SDS011;54086;50.126;8.710;2024-01-30T14:18:49;18.63;;;11.35;;
67156;SDS011;54086;50.126;8.710;2024-01-30T14:21:15;19.60;;;12.00;;
67156;SDS011;54086;50.126;8.710;2024-01-30T14:23:40;20.17;;;12.20;;